sensor_id;sensor_type;location;lat;lon;timestamp;pressure;altitude;pressure_sealevel;temperature
19568;BMP280;9930;49.240;8.548;2023-12-04T00:00:33;100709.84;;;1.43
19568;BMP280;9930;49.240;8.548;2023-12-04T00:02:59;100717.53;;;1.45
19568;BMP280;9930;49.240;8.548;2023-12-04T00:05:25;100709.63;;;1.40
19568;BMP280;9930;49.240;8.548;2023-12-04T00:07:51;100707.34;;;1.43
19568;BMP280;9930;49.240;8.548;2023-12-04T00:10:16;100699.84;;;1.33
19568;BMP280;9930;49.240;8.548;2023-12-04T00:12:42;100714.75;;;1.42
19568;BMP280;9930;49.240;8.548;2023-12-04T00:15:11;100695.81;;;1.35
19568;BMP280;9930;49.240;8.548;2023-12-04T00:17:36;100707.09;;;1.40
19568;BMP280;9930;49.240;8.548;2023-12-04T00:20:10;100684.88;;;1.35
19568;BMP280;9930;49.240;8.548;2023-12-04T00:22:37;100691.78;;;1.37
19568;BMP280;9930;49.240;8.548;2023-12-04T00:25:06;100696.06;;;1.38
19568;BMP280;9930;49.240;8.548;2023-12-04T00:27:32;100683.78;;;1.31
19568;BMP280;9930;49.240;8.548;2023-12-04T00:30:00;100678.50;;;1.28
19568;BMP280;9930;49.240;8.548;2023-12-04T00:32:29;100683.00;;;1.32
19568;BMP280;9930;49.240;8.548;2023-12-04T00:34:57;100673.47;;;1.28
19568;BMP280;9930;49.240;8.548;2023-12-04T00:37:23;100684.88;;;1.35
19568;BMP280;9930;49.240;8.548;2023-12-04T00:39:48;100690.03;;;1.36
19568;BMP280;9930;49.240;8.548;2023-12-04T00:42:16;100669.97;;;1.26
19568;BMP280;9930;49.240;8.548;2023-12-04T00:44:42;100687.28;;;1.33
19568;BMP280;9930;49.240;8.548;2023-12-04T00:47:11;100676.63;;;1.25
19568;BMP280;9930;49.240;8.548;2023-12-04T00:49:42;100678.00;;;1.32
19568;BMP280;9930;49.240;8.548;2023-12-04T00:52:08;100676.22;;;1.31
19568;BMP280;9930;49.240;8.548;2023-12-04T00:54:33;100671.09;;;1.29
19568;BMP280;9930;49.240;8.548;2023-12-04T00:56:59;100665.19;;;1.29
19568;BMP280;9930;49.240;8.548;2023-12-04T00:59:24;100661.78;;;1.28
19568;BMP280;9930;49.240;8.548;2023-12-04T01:01:52;100646.13;;;1.21
19568;BMP280;9930;49.240;8.548;2023-12-04T01:04:18;100647.88;;;1.22
19568;BMP280;9930;49.240;8.548;2023-12-04T01:06:44;100654.78;;;1.24
19568;BMP280;9930;49.240;8.548;2023-12-04T01:09:14;100645.47;;;1.23
19568;BMP280;9930;49.240;8.548;2023-12-04T01:11:43;100640.47;;;1.23
19568;BMP280;9930;49.240;8.548;2023-12-04T01:14:11;100640.22;;;1.20
19568;BMP280;9930;49.240;8.548;2023-12-04T01:16:37;100625.31;;;1.12
19568;BMP280;9930;49.240;8.548;2023-12-04T01:19:02;100642.63;;;1.19
19568;BMP280;9930;49.240;8.548;2023-12-04T01:21:28;100637.47;;;1.17
19568;BMP280;9930;49.240;8.548;2023-12-04T01:23:54;100632.31;;;1.16
19568;BMP280;9930;49.240;8.548;2023-12-04T01:26:24;100639.34;;;1.20
19568;BMP280;9930;49.240;8.548;2023-12-04T01:28:49;100633.56;;;1.21
19568;BMP280;9930;49.240;8.548;2023-12-04T01:31:15;100627.78;;;1.22
19568;BMP280;9930;49.240;8.548;2023-12-04T01:33:43;100612.13;;;1.14
19568;BMP280;9930;49.240;8.548;2023-12-04T01:36:10;100623.88;;;1.25
19568;BMP280;9930;49.240;8.548;2023-12-04T01:38:38;100618.97;;;1.27
19568;BMP280;9930;49.240;8.548;2023-12-04T01:41:04;100611.66;;;1.30
19568;BMP280;9930;49.240;8.548;2023-12-04T01:43:32;100615.16;;;1.32
19568;BMP280;9930;49.240;8.548;2023-12-04T01:46:01;100609.66;;;1.26
19568;BMP280;9930;49.240;8.548;2023-12-04T01:48:28;100610.25;;;1.34
19568;BMP280;9930;49.240;8.548;2023-12-04T01:50:55;100606.00;;;1.33
19568;BMP280;9930;49.240;8.548;2023-12-04T01:53:23;100598.09;;;1.28
19568;BMP280;9930;49.240;8.548;2023-12-04T01:55:49;100603.38;;;1.31
19568;BMP280;9930;49.240;8.548;2023-12-04T01:58:20;100606.22;;;1.36
19568;BMP280;9930;49.240;8.548;2023-12-04T02:00:46;100596.47;;;1.28
19568;BMP280;9930;49.240;8.548;2023-12-04T02:03:14;100607.09;;;1.36
19568;BMP280;9930;49.240;8.548;2023-12-04T02:05:44;100589.03;;;1.30
19568;BMP280;9930;49.240;8.548;2023-12-04T02:08:11;100601.22;;;1.36
19568;BMP280;9930;49.240;8.548;2023-12-04T02:10:40;100582.63;;;1.34
19568;BMP280;9930;49.240;8.548;2023-12-04T02:13:06;100574.72;;;1.29
19568;BMP280;9930;49.240;8.548;2023-12-04T02:15:32;100580.09;;;1.34
19568;BMP280;9930;49.240;8.548;2023-12-04T02:18:03;100570.69;;;1.31
19568;BMP280;9930;49.240;8.548;2023-12-04T02:20:35;100573.22;;;1.31
19568;BMP280;9930;49.240;8.548;2023-12-04T02:23:02;100551.66;;;1.23
19568;BMP280;9930;49.240;8.548;2023-12-04T02:25:29;100564.69;;;1.29
19568;BMP280;9930;49.240;8.548;2023-12-04T02:27:59;100562.16;;;1.29
19568;BMP280;9930;49.240;8.548;2023-12-04T02:30:28;100559.53;;;1.27
19568;BMP280;9930;49.240;8.548;2023-12-04T02:32:59;100534.25;;;1.14
19568;BMP280;9930;49.240;8.548;2023-12-04T02:35:29;100541.25;;;1.18
19568;BMP280;9930;49.240;8.548;2023-12-04T02:38:01;100546.41;;;1.20
19568;BMP280;9930;49.240;8.548;2023-12-04T02:40:32;100552.66;;;1.25
19568;BMP280;9930;49.240;8.548;2023-12-04T02:42:59;100543.47;;;1.25
19568;BMP280;9930;49.240;8.548;2023-12-04T02:45:24;100539.31;;;1.26
19568;BMP280;9930;49.240;8.548;2023-12-04T02:47:52;100534.31;;;1.26
19568;BMP280;9930;49.240;8.548;2023-12-04T02:50:18;100528.41;;;1.25
19568;BMP280;9930;49.240;8.548;2023-12-04T02:52:46;100505.44;;;1.21
19568;BMP280;9930;49.240;8.548;2023-12-04T02:55:16;100495.28;;;1.19
19568;BMP280;9930;49.240;8.548;2023-12-04T02:57:42;100502.16;;;1.22
19568;BMP280;9930;49.240;8.548;2023-12-04T03:00:09;100486.34;;;1.23
19568;BMP280;9930;49.240;8.548;2023-12-04T03:02:38;100490.19;;;1.29
19568;BMP280;9930;49.240;8.548;2023-12-04T03:05:04;100496.97;;;1.30
19568;BMP280;9930;49.240;8.548;2023-12-04T03:07:30;100489.53;;;1.32
19568;BMP280;9930;49.240;8.548;2023-12-04T03:09:58;100476.88;;;1.30
19568;BMP280;9930;49.240;8.548;2023-12-04T03:12:26;100473.59;;;1.32
19568;BMP280;9930;49.240;8.548;2023-12-04T03:14:53;100478.72;;;1.33
19568;BMP280;9930;49.240;8.548;2023-12-04T03:17:20;100479.72;;;1.35
19568;BMP280;9930;49.240;8.548;2023-12-04T03:19:45;100480.59;;;1.36
19568;BMP280;9930;49.240;8.548;2023-12-04T03:22:17;100461.91;;;1.32
19568;BMP280;9930;49.240;8.548;2023-12-04T03:24:43;100454.38;;;1.32
19568;BMP280;9930;49.240;8.548;2023-12-04T03:27:10;100452.84;;;1.34
19568;BMP280;9930;49.240;8.548;2023-12-04T03:29:36;100455.94;;;1.42
19568;BMP280;9930;49.240;8.548;2023-12-04T03:32:02;100447.63;;;1.43
19568;BMP280;9930;49.240;8.548;2023-12-04T03:34:28;100438.44;;;1.43
19568;BMP280;9930;49.240;8.548;2023-12-04T03:36:56;100429.28;;;1.44
19568;BMP280;9930;49.240;8.548;2023-12-04T03:39:22;100436.03;;;1.45
19568;BMP280;9930;49.240;8.548;2023-12-04T03:41:47;100431.91;;;1.45
19568;BMP280;9930;49.240;8.548;2023-12-04T03:44:13;100432.00;;;1.47
19568;BMP280;9930;49.240;8.548;2023-12-04T03:46:40;100430.03;;;1.43
19568;BMP280;9930;49.240;8.548;2023-12-04T03:49:08;100436.28;;;1.48
19568;BMP280;9930;49.240;8.548;2023-12-04T03:51:34;100428.97;;;1.51
19568;BMP280;9930;49.240;8.548;2023-12-04T03:53:59;100424.03;;;1.52
19568;BMP280;9930;49.240;8.548;2023-12-04T03:56:25;100429.28;;;1.55
19568;BMP280;9930;49.240;8.548;2023-12-04T03:58:50;100420.88;;;1.55
19568;BMP280;9930;49.240;8.548;2023-12-04T04:01:16;100432.03;;;1.58
19568;BMP280;9930;49.240;8.548;2023-12-04T04:03:42;100413.13;;;1.52
19568;BMP280;9930;49.240;8.548;2023-12-04T04:06:10;100438.03;;;1.60
19568;BMP280;9930;49.240;8.548;2023-12-04T04:08:36;100438.16;;;1.62
19568;BMP280;9930;49.240;8.548;2023-12-04T04:11:01;100438.28;;;1.63
19568;BMP280;9930;49.240;8.548;2023-12-04T04:13:32;100429.19;;;1.66
19568;BMP280;9930;49.240;8.548;2023-12-04T04:15:58;100416.06;;;1.58
19568;BMP280;9930;49.240;8.548;2023-12-04T04:18:23;100417.06;;;1.60
19568;BMP280;9930;49.240;8.548;2023-12-04T04:20:49;100436.09;;;1.68
19568;BMP280;9930;49.240;8.548;2023-12-04T04:23:14;100437.06;;;1.70
19568;BMP280;9930;49.240;8.548;2023-12-04T04:25:46;100428.22;;;1.63
19568;BMP280;9930;49.240;8.548;2023-12-04T04:28:11;100440.69;;;1.74
19568;BMP280;9930;49.240;8.548;2023-12-04T04:30:37;100437.41;;;1.75
19568;BMP280;9930;49.240;8.548;2023-12-04T04:33:03;100436.53;;;1.74
19568;BMP280;9930;49.240;8.548;2023-12-04T04:35:30;100440.91;;;1.77
19568;BMP280;9930;49.240;8.548;2023-12-04T04:37:58;100440.91;;;1.77
19568;BMP280;9930;49.240;8.548;2023-12-04T04:40:24;100436.53;;;1.74
19568;BMP280;9930;49.240;8.548;2023-12-04T04:42:49;100437.75;;;1.79
19568;BMP280;9930;49.240;8.548;2023-12-04T04:45:17;100435.34;;;1.81
19568;BMP280;9930;49.240;8.548;2023-12-04T04:47:43;100418.94;;;1.74
19568;BMP280;9930;49.240;8.548;2023-12-04T04:50:11;100420.16;;;1.79
19568;BMP280;9930;49.240;8.548;2023-12-04T04:52:42;100425.28;;;1.81
19568;BMP280;9930;49.240;8.548;2023-12-04T04:55:13;100409.75;;;1.75
19568;BMP280;9930;49.240;8.548;2023-12-04T04:57:41;100410.09;;;1.79
19568;BMP280;9930;49.240;8.548;2023-12-04T05:00:11;100409.22;;;1.79
19568;BMP280;9930;49.240;8.548;2023-12-04T05:02:44;100405.81;;;1.78
19568;BMP280;9930;49.240;8.548;2023-12-04T05:05:11;100414.13;;;1.77
19568;BMP280;9930;49.240;8.548;2023-12-04T05:07:37;100408.22;;;1.77
19568;BMP280;9930;49.240;8.548;2023-12-04T05:10:04;100392.59;;;1.69
19568;BMP280;9930;49.240;8.548;2023-12-04T05:12:29;100395.22;;;1.71
19568;BMP280;9930;49.240;8.548;2023-12-04T05:15:00;100395.56;;;1.75
19568;BMP280;9930;49.240;8.548;2023-12-04T05:17:25;100398.94;;;1.76
19568;BMP280;9930;49.240;8.548;2023-12-04T05:19:51;100400.47;;;1.74
19568;BMP280;9930;49.240;8.548;2023-12-04T05:22:16;100396.31;;;1.74
19568;BMP280;9930;49.240;8.548;2023-12-04T05:24:42;100406.25;;;1.73
19568;BMP280;9930;49.240;8.548;2023-12-04T05:27:08;100411.41;;;1.74
19568;BMP280;9930;49.240;8.548;2023-12-04T05:29:34;100408.66;;;1.71
19568;BMP280;9930;49.240;8.548;2023-12-04T05:31:59;100416.97;;;1.70
19568;BMP280;9930;49.240;8.548;2023-12-04T05:34:28;100406.03;;;1.70
19568;BMP280;9930;49.240;8.548;2023-12-04T05:36:56;100414.69;;;1.73
19568;BMP280;9930;49.240;8.548;2023-12-04T05:39:21;100418.81;;;1.73
19568;BMP280;9930;49.240;8.548;2023-12-04T05:41:49;100413.34;;;1.67
19568;BMP280;9930;49.240;8.548;2023-12-04T05:44:15;100403.94;;;1.64
19568;BMP280;9930;49.240;8.548;2023-12-04T05:46:41;100398.94;;;1.64
19568;BMP280;9930;49.240;8.548;2023-12-04T05:49:11;100400.13;;;1.69
19568;BMP280;9930;49.240;8.548;2023-12-04T05:51:37;100391.28;;;1.62
19568;BMP280;9930;49.240;8.548;2023-12-04T05:54:02;100394.56;;;1.61
19568;BMP280;9930;49.240;8.548;2023-12-04T05:56:28;100408.44;;;1.68
19568;BMP280;9930;49.240;8.548;2023-12-04T05:58:57;100407.56;;;1.68
19568;BMP280;9930;49.240;8.548;2023-12-04T06:01:23;100403.31;;;1.67
19568;BMP280;9930;49.240;8.548;2023-12-04T06:03:49;100404.94;;;1.66
19568;BMP280;9930;49.240;8.548;2023-12-04T06:06:17;100396.97;;;1.60
19568;BMP280;9930;49.240;8.548;2023-12-04T06:08:45;100405.81;;;1.67
19568;BMP280;9930;49.240;8.548;2023-12-04T06:11:11;100397.41;;;1.66
19568;BMP280;9930;49.240;8.548;2023-12-04T06:13:37;100388.88;;;1.64
19568;BMP280;9930;49.240;8.548;2023-12-04T06:16:08;100373.03;;;1.65
19568;BMP280;9930;49.240;8.548;2023-12-04T06:18:34;100361.44;;;1.55
19568;BMP280;9930;49.240;8.548;2023-12-04T06:21:02;100368.31;;;1.58
19568;BMP280;9930;49.240;8.548;2023-12-04T06:23:32;100367.78;;;1.62
19568;BMP280;9930;49.240;8.548;2023-12-04T06:26:00;100358.50;;;1.61
19568;BMP280;9930;49.240;8.548;2023-12-04T06:28:29;100355.22;;;1.62
19568;BMP280;9930;49.240;8.548;2023-12-04T06:30:55;100345.16;;;1.50
19568;BMP280;9930;49.240;8.548;2023-12-04T06:33:21;100352.81;;;1.63
19568;BMP280;9930;49.240;8.548;2023-12-04T06:35:49;100352.91;;;1.65
19568;BMP280;9930;49.240;8.548;2023-12-04T06:38:23;100341.00;;;1.62
19568;BMP280;9930;49.240;8.548;2023-12-04T06:40:50;100336.19;;;1.66
19568;BMP280;9930;49.240;8.548;2023-12-04T06:43:16;100325.91;;;1.62
19568;BMP280;9930;49.240;8.548;2023-12-04T06:45:45;100338.28;;;1.71
19568;BMP280;9930;49.240;8.548;2023-12-04T06:48:13;100324.59;;;1.68
19568;BMP280;9930;49.240;8.548;2023-12-04T06:50:41;100324.16;;;1.73
19568;BMP280;9930;49.240;8.548;2023-12-04T06:53:07;100307.13;;;1.69
19568;BMP280;9930;49.240;8.548;2023-12-04T06:55:35;100306.69;;;1.75
19568;BMP280;9930;49.240;8.548;2023-12-04T06:58:00;100310.28;;;1.78
19568;BMP280;9930;49.240;8.548;2023-12-04T07:00:26;100299.47;;;1.79
19568;BMP280;9930;49.240;8.548;2023-12-04T07:02:52;100281.44;;;1.73
19568;BMP280;9930;49.240;8.548;2023-12-04T07:05:21;100280.22;;;1.80
19568;BMP280;9930;49.240;8.548;2023-12-04T07:07:47;100275.75;;;1.76
19568;BMP280;9930;49.240;8.548;2023-12-04T07:10:13;100276.28;;;1.83
19568;BMP280;9930;49.240;8.548;2023-12-04T07:12:42;100266.31;;;1.85
19568;BMP280;9930;49.240;8.548;2023-12-04T07:15:09;100240.22;;;1.71
19568;BMP280;9930;49.240;8.548;2023-12-04T07:17:37;100275.06;;;1.90
19568;BMP280;9930;49.240;8.548;2023-12-04T07:20:09;100270.81;;;1.89
19568;BMP280;9930;49.240;8.548;2023-12-04T07:22:37;100268.72;;;1.95
19568;BMP280;9930;49.240;8.548;2023-12-04T07:25:03;100278.00;;;1.96
19568;BMP280;9930;49.240;8.548;2023-12-04T07:27:31;100278.09;;;1.98
19568;BMP280;9930;49.240;8.548;2023-12-04T07:29:59;100282.59;;;2.02
19568;BMP280;9930;49.240;8.548;2023-12-04T07:32:25;100277.75;;;2.05
19568;BMP280;9930;49.240;8.548;2023-12-04T07:34:51;100283.00;;;2.08
19568;BMP280;9930;49.240;8.548;2023-12-04T07:37:16;100283.22;;;2.11
19568;BMP280;9930;49.240;8.548;2023-12-04T07:39:43;100272.84;;;2.06
19568;BMP280;9930;49.240;8.548;2023-12-04T07:42:15;100292.16;;;2.19
19568;BMP280;9930;49.240;8.548;2023-12-04T07:44:41;100280.25;;;2.16
19568;BMP280;9930;49.240;8.548;2023-12-04T07:47:12;100280.78;;;2.24
19568;BMP280;9930;49.240;8.548;2023-12-04T07:49:44;100269.63;;;2.20
19568;BMP280;9930;49.240;8.548;2023-12-04T07:52:11;100289.50;;;2.29
19568;BMP280;9930;49.240;8.548;2023-12-04T07:54:40;100279.34;;;2.27
19568;BMP280;9930;49.240;8.548;2023-12-04T07:57:06;100291.56;;;2.35
19568;BMP280;9930;49.240;8.548;2023-12-04T07:59:32;100285.09;;;2.38
19568;BMP280;9930;49.240;8.548;2023-12-04T08:01:57;100290.34;;;2.41
19568;BMP280;9930;49.240;8.548;2023-12-04T08:04:23;100277.09;;;2.44
19568;BMP280;9930;49.240;8.548;2023-12-04T08:06:49;100284.06;;;2.48
19568;BMP280;9930;49.240;8.548;2023-12-04T08:09:15;100265.38;;;2.44
19568;BMP280;9930;49.240;8.548;2023-12-04T08:11:45;100245.13;;;2.43
19568;BMP280;9930;49.240;8.548;2023-12-04T08:14:13;100258.53;;;2.55
19568;BMP280;9930;49.240;8.548;2023-12-04T08:16:39;100268.03;;;2.59
19568;BMP280;9930;49.240;8.548;2023-12-04T08:19:05;100259.91;;;2.63
19568;BMP280;9930;49.240;8.548;2023-12-04T08:21:31;100244.03;;;2.64
19568;BMP280;9930;49.240;8.548;2023-12-04T08:23:57;100232.03;;;2.60
19568;BMP280;9930;49.240;8.548;2023-12-04T08:26:26;100236.78;;;2.69
19568;BMP280;9930;49.240;8.548;2023-12-04T08:28:52;100219.53;;;2.62
19568;BMP280;9930;49.240;8.548;2023-12-04T08:31:21;100222.25;;;2.65
19568;BMP280;9930;49.240;8.548;2023-12-04T08:33:49;100228.38;;;2.68
19568;BMP280;9930;49.240;8.548;2023-12-04T08:36:15;100217.53;;;2.69
19568;BMP280;9930;49.240;8.548;2023-12-04T08:38:41;100206.59;;;2.69
19568;BMP280;9930;49.240;8.548;2023-12-04T08:41:07;100221.81;;;2.83
19568;BMP280;9930;49.240;8.548;2023-12-04T08:43:33;100214.56;;;2.88
19568;BMP280;9930;49.240;8.548;2023-12-04T08:45:59;100204.78;;;2.92
19568;BMP280;9930;49.240;8.548;2023-12-04T08:48:26;100189.56;;;2.91
19568;BMP280;9930;49.240;8.548;2023-12-04T08:50:54;100207.00;;;3.01
19568;BMP280;9930;49.240;8.548;2023-12-04T08:53:19;100187.63;;;3.00
19568;BMP280;9930;49.240;8.548;2023-12-04T08:55:45;100208.56;;;3.12
19568;BMP280;9930;49.240;8.548;2023-12-04T08:58:11;100222.44;;;3.19
19568;BMP280;9930;49.240;8.548;2023-12-04T09:00:37;100222.22;;;3.16
19568;BMP280;9930;49.240;8.548;2023-12-04T09:03:03;100230.47;;;3.27
19568;BMP280;9930;49.240;8.548;2023-12-04T09:05:31;100234.16;;;3.32
19568;BMP280;9930;49.240;8.548;2023-12-04T09:07:57;100234.44;;;3.36
19568;BMP280;9930;49.240;8.548;2023-12-04T09:10:23;100227.06;;;3.39
19568;BMP280;9930;49.240;8.548;2023-12-04T09:12:48;100211.38;;;3.43
19568;BMP280;9930;49.240;8.548;2023-12-04T09:15:14;100210.78;;;3.47
19568;BMP280;9930;49.240;8.548;2023-12-04T09:17:41;100197.13;;;3.44
19568;BMP280;9930;49.240;8.548;2023-12-04T09:20:07;100206.03;;;3.52
19568;BMP280;9930;49.240;8.548;2023-12-04T09:22:32;100211.16;;;3.53
19568;BMP280;9930;49.240;8.548;2023-12-04T09:25:00;100207.69;;;3.51
19568;BMP280;9930;49.240;8.548;2023-12-04T09:27:26;100206.13;;;3.53
19568;BMP280;9930;49.240;8.548;2023-12-04T09:29:51;100213.00;;;3.56
19568;BMP280;9930;49.240;8.548;2023-12-04T09:32:17;100223.19;;;3.57
19568;BMP280;9930;49.240;8.548;2023-12-04T09:34:44;100226.66;;;3.60
19568;BMP280;9930;49.240;8.548;2023-12-04T09:37:10;100215.44;;;3.54
19568;BMP280;9930;49.240;8.548;2023-12-04T09:39:41;100217.19;;;3.55
19568;BMP280;9930;49.240;8.548;2023-12-04T09:42:09;100241.63;;;3.56
19568;BMP280;9930;49.240;8.548;2023-12-04T09:44:39;100243.53;;;3.61
19568;BMP280;9930;49.240;8.548;2023-12-04T09:47:07;100242.38;;;3.69
19568;BMP280;9930;49.240;8.548;2023-12-04T09:49:34;100256.91;;;3.73
19568;BMP280;9930;49.240;8.548;2023-12-04T09:52:01;100234.13;;;3.71
19568;BMP280;9930;49.240;8.548;2023-12-04T09:54:35;100235.38;;;3.78
19568;BMP280;9930;49.240;8.548;2023-12-04T09:57:01;100238.38;;;3.85
19568;BMP280;9930;49.240;8.548;2023-12-04T09:59:30;100226.63;;;3.86
19568;BMP280;9930;49.240;8.548;2023-12-04T10:01:57;100212.44;;;3.88
19568;BMP280;9930;49.240;8.548;2023-12-04T10:04:25;100213.59;;;3.93
19568;BMP280;9930;49.240;8.548;2023-12-04T10:06:51;100214.47;;;3.94
19568;BMP280;9930;49.240;8.548;2023-12-04T10:09:18;100197.19;;;4.00
19568;BMP280;9930;49.240;8.548;2023-12-04T10:11:45;100196.03;;;3.95
19568;BMP280;9930;49.240;8.548;2023-12-04T10:14:19;100207.38;;;4.01
19568;BMP280;9930;49.240;8.548;2023-12-04T10:16:46;100207.47;;;4.03
19568;BMP280;9930;49.240;8.548;2023-12-04T10:21:47;100202.31;;;4.01
19568;BMP280;9930;49.240;8.548;2023-12-04T10:24:30;100178.38;;;3.95
19568;BMP280;9930;49.240;8.548;2023-12-04T10:27:00;100186.81;;;3.95
19568;BMP280;9930;49.240;8.548;2023-12-04T10:29:41;100212.59;;;4.04
19568;BMP280;9930;49.240;8.548;2023-12-04T10:32:09;100185.81;;;4.06
19568;BMP280;9930;49.240;8.548;2023-12-04T10:34:34;100189.19;;;4.07
19568;BMP280;9930;49.240;8.548;2023-12-04T10:37:03;100187.81;;;4.12
19568;BMP280;9930;49.240;8.548;2023-12-04T10:39:31;100166.41;;;4.05
19568;BMP280;9930;49.240;8.548;2023-12-04T10:42:04;100175.72;;;4.06
19568;BMP280;9930;49.240;8.548;2023-12-04T10:44:34;100175.03;;;4.09
19568;BMP280;9930;49.240;8.548;2023-12-04T10:47:03;100180.44;;;4.15
19568;BMP280;9930;49.240;8.548;2023-12-04T10:49:32;100164.50;;;4.16
19568;BMP280;9930;49.240;8.548;2023-12-04T10:51:58;100148.13;;;4.09
19568;BMP280;9930;49.240;8.548;2023-12-04T10:54:25;100144.41;;;4.17
19568;BMP280;9930;49.240;8.548;2023-12-04T10:56:52;100140.31;;;4.19
19568;BMP280;9930;49.240;8.548;2023-12-04T10:59:28;100124.22;;;4.17
19568;BMP280;9930;49.240;8.548;2023-12-04T11:02:04;100098.53;;;4.10
19568;BMP280;9930;49.240;8.548;2023-12-04T11:04:31;100094.34;;;4.10
19568;BMP280;9930;49.240;8.548;2023-12-04T11:07:05;100094.19;;;4.07
19568;BMP280;9930;49.240;8.548;2023-12-04T11:09:35;100090.53;;;4.02
19568;BMP280;9930;49.240;8.548;2023-12-04T11:12:08;100077.47;;;3.95
19568;BMP280;9930;49.240;8.548;2023-12-04T11:14:44;100083.56;;;3.98
19568;BMP280;9930;49.240;8.548;2023-12-04T11:17:14;100089.38;;;3.97
19568;BMP280;9930;49.240;8.548;2023-12-04T11:22:25;100072.59;;;3.98
19568;BMP280;9930;49.240;8.548;2023-12-04T11:24:52;100071.63;;;3.96
19568;BMP280;9930;49.240;8.548;2023-12-04T11:27:18;100078.69;;;4.01
19568;BMP280;9930;49.240;8.548;2023-12-04T11:29:50;100057.44;;;3.98
19568;BMP280;9930;49.240;8.548;2023-12-04T11:32:17;100059.38;;;4.02
19568;BMP280;9930;49.240;8.548;2023-12-04T11:35:15;100046.66;;;4.00
19568;BMP280;9930;49.240;8.548;2023-12-04T11:37:49;100061.47;;;4.09
19568;BMP280;9930;49.240;8.548;2023-12-04T11:40:17;100040.31;;;4.07
19568;BMP280;9930;49.240;8.548;2023-12-04T11:42:43;100035.44;;;4.10
19568;BMP280;9930;49.240;8.548;2023-12-04T11:45:19;100033.88;;;4.12
19568;BMP280;9930;49.240;8.548;2023-12-04T11:50:20;100005.59;;;4.03
19568;BMP280;9930;49.240;8.548;2023-12-04T11:52:47;100006.81;;;4.09
19568;BMP280;9930;49.240;8.548;2023-12-04T11:55:26;100001.78;;;4.09
19568;BMP280;9930;49.240;8.548;2023-12-04T11:57:57;100004.28;;;4.09
19568;BMP280;9930;49.240;8.548;2023-12-04T12:00:23;99986.38;;;4.05
19568;BMP280;9930;49.240;8.548;2023-12-04T12:05:21;99982.88;;;4.17
19568;BMP280;9930;49.240;8.548;2023-12-04T12:07:50;99967.75;;;4.17
19568;BMP280;9930;49.240;8.548;2023-12-04T12:10:17;99966.34;;;4.22
19568;BMP280;9930;49.240;8.548;2023-12-04T12:12:43;99955.28;;;4.20
19568;BMP280;9930;49.240;8.548;2023-12-04T12:15:13;99951.28;;;4.24
19568;BMP280;9930;49.240;8.548;2023-12-04T12:17:42;99961.72;;;4.30
19568;BMP280;9930;49.240;8.548;2023-12-04T12:20:14;99953.97;;;4.27
19568;BMP280;9930;49.240;8.548;2023-12-04T12:22:42;99947.53;;;4.32
19568;BMP280;9930;49.240;8.548;2023-12-04T12:25:12;99949.97;;;4.31
19568;BMP280;9930;49.240;8.548;2023-12-04T12:27:38;99932.22;;;4.29
19568;BMP280;9930;49.240;8.548;2023-12-04T12:30:05;99934.91;;;4.32
19568;BMP280;9930;49.240;8.548;2023-12-04T12:32:35;99920.63;;;4.33
19568;BMP280;9930;49.240;8.548;2023-12-04T12:35:06;99910.44;;;4.31
19568;BMP280;9930;49.240;8.548;2023-12-04T12:37:41;99915.81;;;4.37
19568;BMP280;9930;49.240;8.548;2023-12-04T12:40:09;99907.47;;;4.38
19568;BMP280;9930;49.240;8.548;2023-12-04T12:42:39;99909.38;;;4.42
19568;BMP280;9930;49.240;8.548;2023-12-04T12:45:11;99898.56;;;4.45
19568;BMP280;9930;49.240;8.548;2023-12-04T12:47:44;99899.75;;;4.51
19568;BMP280;9930;49.240;8.548;2023-12-04T12:50:14;99890.78;;;4.57
19568;BMP280;9930;49.240;8.548;2023-12-04T12:52:43;99873.72;;;4.52
19568;BMP280;9930;49.240;8.548;2023-12-04T12:55:08;99876.50;;;4.57
19568;BMP280;9930;49.240;8.548;2023-12-04T12:57:35;99876.81;;;4.63
19568;BMP280;9930;49.240;8.548;2023-12-04T13:00:07;99879.56;;;4.68
19568;BMP280;9930;49.240;8.548;2023-12-04T13:02:36;99869.41;;;4.66
19568;BMP280;9930;49.240;8.548;2023-12-04T13:05:05;99871.22;;;4.69
19568;BMP280;9930;49.240;8.548;2023-12-04T13:07:31;99860.09;;;4.65
19568;BMP280;9930;49.240;8.548;2023-12-04T13:09:56;99863.63;;;4.69
19568;BMP280;9930;49.240;8.548;2023-12-04T13:12:22;99852.59;;;4.67
19568;BMP280;9930;49.240;8.548;2023-12-04T13:14:53;99843.03;;;4.61
19568;BMP280;9930;49.240;8.548;2023-12-04T13:17:18;99849.34;;;4.69
19568;BMP280;9930;49.240;8.548;2023-12-04T13:19:44;99853.63;;;4.70
19568;BMP280;9930;49.240;8.548;2023-12-04T13:22:14;99835.13;;;4.71
19568;BMP280;9930;49.240;8.548;2023-12-04T13:24:43;99823.31;;;4.70
19568;BMP280;9930;49.240;8.548;2023-12-04T13:27:11;99835.84;;;4.69
19568;BMP280;9930;49.240;8.548;2023-12-04T13:29:39;99817.06;;;4.64
19568;BMP280;9930;49.240;8.548;2023-12-04T13:32:06;99825.75;;;4.69
19568;BMP280;9930;49.240;8.548;2023-12-04T13:34:33;99802.94;;;4.67
19568;BMP280;9930;49.240;8.548;2023-12-04T13:36:59;99811.53;;;4.71
19568;BMP280;9930;49.240;8.548;2023-12-04T13:39:26;99810.81;;;4.73
19568;BMP280;9930;49.240;8.548;2023-12-04T13:42:24;99804.03;;;4.72
19568;BMP280;9930;49.240;8.548;2023-12-04T13:45:09;99793.06;;;4.72
19568;BMP280;9930;49.240;8.548;2023-12-04T13:47:39;99782.72;;;4.67
19568;BMP280;9930;49.240;8.548;2023-12-04T13:50:11;99782.88;;;4.70
19568;BMP280;9930;49.240;8.548;2023-12-04T13:52:37;99791.50;;;4.74
19568;BMP280;9930;49.240;8.548;2023-12-04T13:55:05;99779.72;;;4.74
19568;BMP280;9930;49.240;8.548;2023-12-04T13:57:43;99779.88;;;4.77
19568;BMP280;9930;49.240;8.548;2023-12-04T14:00:23;99766.31;;;4.75
19568;BMP280;9930;49.240;8.548;2023-12-04T14:02:49;99757.72;;;4.72
19568;BMP280;9930;49.240;8.548;2023-12-04T14:05:19;99762.28;;;4.79
19568;BMP280;9930;49.240;8.548;2023-12-04T14:07:49;99746.81;;;4.73
19568;BMP280;9930;49.240;8.548;2023-12-04T14:10:17;99753.03;;;4.79
19568;BMP280;9930;49.240;8.548;2023-12-04T14:12:43;99741.34;;;4.81
19568;BMP280;9930;49.240;8.548;2023-12-04T14:15:12;99740.47;;;4.81
19568;BMP280;9930;49.240;8.548;2023-12-04T14:17:42;99727.72;;;4.78
19568;BMP280;9930;49.240;8.548;2023-12-04T14:20:09;99721.00;;;4.78
19568;BMP280;9930;49.240;8.548;2023-12-04T14:22:42;99732.34;;;4.86
19568;BMP280;9930;49.240;8.548;2023-12-04T14:25:09;99717.69;;;4.79
19568;BMP280;9930;49.240;8.548;2023-12-04T14:27:36;99726.50;;;4.87
19568;BMP280;9930;49.240;8.548;2023-12-04T14:30:08;99720.66;;;4.88
19568;BMP280;9930;49.240;8.548;2023-12-04T14:32:37;99696.19;;;4.87
19568;BMP280;9930;49.240;8.548;2023-12-04T14:35:08;99692.94;;;4.90
19568;BMP280;9930;49.240;8.548;2023-12-04T14:37:34;99690.78;;;4.98